createdAt,value
2023-05-06T00:02:27.634Z,14.7
2023-05-06T00:04:58.351Z,14.6
2023-05-06T00:07:27.840Z,14.8
2023-05-06T00:09:58.374Z,14.8
2023-05-06T00:12:29.365Z,14.5
2023-05-06T00:15:00.104Z,14.6
2023-05-06T00:17:29.500Z,14.6
2023-05-06T00:20:00.196Z,14.5
2023-05-06T00:22:31.094Z,14.5
2023-05-06T00:25:02.388Z,14.5
2023-05-06T00:27:32.871Z,14.5
2023-05-06T00:30:03.688Z,14.3
2023-05-06T00:32:36.772Z,14.3
2023-05-06T00:35:07.165Z,14.4
2023-05-06T00:37:38.103Z,14.3
2023-05-06T00:40:07.167Z,14.3
2023-05-06T00:42:38.168Z,14.1
2023-05-06T00:45:08.952Z,14.1
2023-05-06T00:47:39.655Z,14.2
2023-05-06T00:50:10.373Z,14
2023-05-06T00:52:41.385Z,14.2
2023-05-06T00:55:15.017Z,14.2
2023-05-06T00:57:46.681Z,14
2023-05-06T01:00:17.288Z,14.1
2023-05-06T01:02:48.510Z,14.1
2023-05-06T01:05:22.492Z,14.1
2023-05-06T01:07:53.991Z,14.1
2023-05-06T01:10:24.592Z,14.1
2023-05-06T01:12:55.162Z,14
2023-05-06T01:15:25.652Z,14.1
2023-05-06T01:17:56.796Z,13.8
2023-05-06T01:20:27.978Z,14
2023-05-06T01:22:59.506Z,14
2023-05-06T01:25:29.504Z,14
2023-05-06T01:28:00.909Z,14
2023-05-06T01:30:32.232Z,13.9
2023-05-06T01:33:02.978Z,13.9
2023-05-06T01:35:33.546Z,13.7
2023-05-06T01:38:04.797Z,13.7
2023-05-06T01:40:35.810Z,13.8
2023-05-06T01:43:06.694Z,13.6
2023-05-06T01:45:37.989Z,13.6
2023-05-06T01:48:08.995Z,13.7
2023-05-06T01:50:40.367Z,13.4
2023-05-06T01:53:14.208Z,13.6
2023-05-06T01:55:44.765Z,13.6
2023-05-06T01:58:15.656Z,13.5
2023-05-06T02:03:26.264Z,13.6
2023-05-06T02:05:56.723Z,13.5
2023-05-06T02:08:27.258Z,13.5
2023-05-06T02:10:57.748Z,13.6
2023-05-06T02:13:28.442Z,13.6
2023-05-06T02:15:59.313Z,13.4
2023-05-06T02:18:29.944Z,13.4
2023-05-06T02:21:00.799Z,13.5
2023-05-06T02:23:31.578Z,13.5
2023-05-06T02:26:02.341Z,13.5
2023-05-06T02:28:33.319Z,13.4
2023-05-06T02:31:06.382Z,13.4
2023-05-06T02:33:39.897Z,13.5
2023-05-06T02:36:10.229Z,13.4
2023-05-06T02:38:41.255Z,13.4
2023-05-06T02:41:11.743Z,13.4
2023-05-06T02:43:42.836Z,13.4
2023-05-06T02:46:13.733Z,13.5
2023-05-06T02:48:44.772Z,13.3
2023-05-06T02:51:15.328Z,13.4
2023-05-06T02:53:46.652Z,13.4
2023-05-06T02:56:17.377Z,13.4
2023-05-06T02:58:48.596Z,13.4
2023-05-06T03:01:19.252Z,13.4
2023-05-06T03:03:50.819Z,13.3
2023-05-06T03:06:21.525Z,13.2
2023-05-06T03:08:52.672Z,13.3
2023-05-06T03:11:22.913Z,13.3
2023-05-06T03:13:52.731Z,13.3
2023-05-06T03:16:23.350Z,13.2
2023-05-06T03:18:54.672Z,13.3
2023-05-06T03:21:25.758Z,13.3
2023-05-06T03:23:56.719Z,13.3
2023-05-06T03:26:27.041Z,13.1
2023-05-06T03:28:57.622Z,13.1
2023-05-06T03:31:28.506Z,13.3
2023-05-06T03:33:59.218Z,13.1
2023-05-06T03:36:30.330Z,13.1
2023-05-06T03:39:01.320Z,13.2
2023-05-06T03:41:32.263Z,13.1
2023-05-06T03:44:03.085Z,13.2
2023-05-06T03:46:33.940Z,13.1
2023-05-06T03:49:04.932Z,13.2
2023-05-06T03:51:35.664Z,13.1
2023-05-06T03:54:06.412Z,13.2
2023-05-06T03:56:37.357Z,13.1
2023-05-06T03:59:08.719Z,13.3
2023-05-06T04:01:39.610Z,13.3
2023-05-06T04:04:09.920Z,13.3
2023-05-06T04:06:40.440Z,13.3
2023-05-06T04:09:11.126Z,13.3
2023-05-06T04:11:41.802Z,13.4
2023-05-06T04:14:12.630Z,13.3
2023-05-06T04:16:43.869Z,13.5
2023-05-06T04:19:14.813Z,13.6
2023-05-06T04:21:46.503Z,13.6
2023-05-06T04:24:17.528Z,13.7
2023-05-06T04:26:48.279Z,13.8
2023-05-06T04:29:18.999Z,13.9
2023-05-06T04:31:50.136Z,14
2023-05-06T04:34:20.795Z,14.1
2023-05-06T04:36:51.310Z,14.1
2023-05-06T04:39:22.326Z,14.2
2023-05-06T04:41:52.800Z,14.2
2023-05-06T04:44:23.628Z,14.3
2023-05-06T04:46:54.573Z,14.3
2023-05-06T04:49:25.185Z,14.5
2023-05-06T04:51:55.685Z,14.6
2023-05-06T04:54:26.365Z,14.7
2023-05-06T04:56:56.789Z,14.7
2023-05-06T04:59:28.030Z,14.8
2023-05-06T05:01:58.786Z,14.9
2023-05-06T05:04:30.923Z,15
2023-05-06T05:07:05.424Z,15.1
2023-05-06T05:09:36.991Z,15.2
2023-05-06T05:12:07.739Z,15.3
2023-05-06T05:14:38.395Z,15.4
2023-05-06T05:17:09.219Z,15.5
2023-05-06T05:19:40.090Z,15.6
2023-05-06T05:22:11.329Z,15.8
2023-05-06T05:24:42.086Z,15.8
2023-05-06T05:27:12.742Z,15.9
2023-05-06T05:29:43.922Z,16
2023-05-06T05:32:14.551Z,15.9
2023-05-06T05:34:45.995Z,16.1
2023-05-06T05:37:17.130Z,16.2
2023-05-06T05:39:48.299Z,16.3
2023-05-06T05:42:19.149Z,16.4
2023-05-06T05:44:50.270Z,16.7
2023-05-06T05:47:21.117Z,16.9
2023-05-06T05:49:51.710Z,17
2023-05-06T05:52:22.590Z,17
2023-05-06T05:54:53.802Z,17.3
2023-05-06T05:57:24.838Z,17.4
2023-05-06T05:59:55.911Z,17.6
2023-05-06T06:02:26.350Z,17.6
2023-05-06T06:04:57.094Z,17.6
2023-05-06T06:07:27.509Z,17.7
2023-05-06T06:09:58.101Z,18
2023-05-06T06:12:28.547Z,18.2
2023-05-06T06:14:59.026Z,18.3
2023-05-06T06:17:31.317Z,18.5
2023-05-06T06:20:05.023Z,18.7
2023-05-06T06:22:35.519Z,18.7
2023-05-06T06:25:06.065Z,19
2023-05-06T06:27:36.612Z,19
2023-05-06T06:30:07.007Z,19.2
2023-05-06T06:32:38.010Z,19.3
2023-05-06T06:35:11.446Z,19.4
2023-05-06T06:37:42.186Z,19.7
2023-05-06T06:40:13.095Z,19.8
2023-05-06T06:42:44.466Z,19.8
2023-05-06T06:45:15.108Z,19.9
2023-05-06T06:47:46.265Z,20.2
2023-05-06T06:50:16.538Z,20.3
2023-05-06T06:52:47.420Z,20.5
2023-05-06T06:55:18.276Z,20.7
2023-05-06T06:57:48.526Z,20.8
2023-05-06T07:00:19.267Z,21.1
2023-05-06T07:02:49.798Z,21.1
2023-05-06T07:05:20.750Z,21.2
2023-05-06T07:07:51.451Z,21.2
2023-05-06T07:10:21.860Z,21.5
2023-05-06T07:12:52.682Z,21.5
2023-05-06T07:15:23.481Z,21.5
2023-05-06T07:17:52.617Z,21.7
2023-05-06T07:20:23.264Z,21.9
2023-05-06T07:22:54.762Z,22
2023-05-06T07:25:26.234Z,22.1
2023-05-06T07:27:56.860Z,22.4
2023-05-06T07:30:27.418Z,22.3
2023-05-06T07:32:58.042Z,22.5
2023-05-06T07:35:29.063Z,22.7
2023-05-06T07:37:59.760Z,22.8
2023-05-06T07:40:30.362Z,22.8
2023-05-06T07:43:01.219Z,22.8
2023-05-06T07:45:32.017Z,23
2023-05-06T07:48:02.805Z,23
2023-05-06T07:50:33.474Z,23.2
2023-05-06T07:53:04.215Z,23.4
2023-05-06T07:55:35.295Z,23.5
2023-05-06T07:58:05.649Z,23.6
2023-05-06T08:00:37.201Z,23.5
2023-05-06T08:03:08.118Z,23.7
2023-05-06T08:05:38.787Z,23.8
2023-05-06T08:08:09.833Z,24
2023-05-06T08:10:40.790Z,24.1
2023-05-06T08:13:11.269Z,24.2
2023-05-06T08:15:42.514Z,24.1
2023-05-06T08:18:21.391Z,24.1
2023-05-06T08:20:43.839Z,24.2
2023-05-06T08:23:15.165Z,24.3
2023-05-06T08:25:45.524Z,24.3
2023-05-06T08:28:16.214Z,24.3
2023-05-06T08:30:50.648Z,24.4
2023-05-06T08:33:21.466Z,24.5
2023-05-06T08:35:52.244Z,24.6
2023-05-06T08:38:22.667Z,24.8
2023-05-06T08:40:53.187Z,24.7
2023-05-06T08:43:23.615Z,24.6
2023-05-06T08:45:54.536Z,24.5
2023-05-06T08:48:25.815Z,24.6
2023-05-06T08:50:56.485Z,24.3
2023-05-06T08:53:27.065Z,24.6
2023-05-06T08:55:57.966Z,24.6
2023-05-06T08:58:28.409Z,24.7
2023-05-06T09:00:59.120Z,24.7
2023-05-06T09:03:30.081Z,24.8
2023-05-06T09:06:01.270Z,24.9
2023-05-06T09:08:32.572Z,24.9
2023-05-06T09:11:03.680Z,25.1
2023-05-06T09:13:35.418Z,24.9
2023-05-06T09:16:07.228Z,24.9
2023-05-06T09:18:37.644Z,25
2023-05-06T09:21:08.478Z,25
2023-05-06T09:23:39.003Z,24.8
2023-05-06T09:26:10.605Z,24.9
2023-05-06T09:28:41.493Z,25
2023-05-06T09:31:12.341Z,25.1
2023-05-06T09:33:43.001Z,25.2
2023-05-06T09:36:13.625Z,25.2
2023-05-06T09:38:43.939Z,25.2
2023-05-06T09:41:16.904Z,25.4
2023-05-06T09:43:48.007Z,25.4
2023-05-06T09:46:18.758Z,25.5
2023-05-06T09:48:49.848Z,25.6
2023-05-06T09:51:20.301Z,25.5
2023-05-06T09:53:51.317Z,25.7
2023-05-06T09:56:22.236Z,25.7
2023-05-06T09:58:53.438Z,25.6
2023-05-06T10:03:54.854Z,25.5
2023-05-06T10:06:25.178Z,25.8
2023-05-06T10:08:56.457Z,25.6
2023-05-06T10:11:27.265Z,25.6
2023-05-06T10:13:57.765Z,25.6
2023-05-06T10:16:29.282Z,25.8
2023-05-06T10:19:03.720Z,25.8
2023-05-06T10:21:34.923Z,26
2023-05-06T10:24:03.698Z,25.9
2023-05-06T10:26:38.562Z,25.9
2023-05-06T10:29:11.835Z,25.6
2023-05-06T10:31:42.618Z,25.8
2023-05-06T10:34:13.478Z,25.7
2023-05-06T10:42:18.308Z,25.9
2023-05-06T10:44:51.538Z,25.9
2023-05-06T10:52:45.014Z,25.8
2023-05-06T10:55:14.599Z,25.9
2023-05-06T10:57:56.486Z,25.9
2023-05-06T11:00:27.120Z,26
2023-05-06T11:03:10.290Z,26.1
2023-05-06T11:05:39.996Z,26
2023-05-06T11:11:07.281Z,26.3
2023-05-06T11:13:50.635Z,26.2
2023-05-06T11:16:24.428Z,26.1
2023-05-06T11:18:53.279Z,26.1
2023-05-06T11:24:15.507Z,26.4
2023-05-06T11:29:27.703Z,26.3
2023-05-06T11:31:58.248Z,26.5
2023-05-06T11:34:26.463Z,26.5
2023-05-06T11:37:00.959Z,26.3
2023-05-06T11:39:33.274Z,26.3
2023-05-06T11:42:02.272Z,26.3
2023-05-06T11:44:33.127Z,26.3
2023-05-06T11:47:03.732Z,26.3
2023-05-06T11:49:36.733Z,26.2
2023-05-06T11:52:04.911Z,26.3
2023-05-06T11:54:37.690Z,26.4
2023-05-06T11:57:14.262Z,26.5
2023-05-06T11:59:45.086Z,26.6
2023-05-06T12:02:17.647Z,26.6
2023-05-06T12:04:48.364Z,26.5
2023-05-06T12:07:18.923Z,26.5
2023-05-06T12:09:56.104Z,26.4
2023-05-06T12:12:26.710Z,26.2
2023-05-06T12:14:57.355Z,25.9
2023-05-06T12:17:27.872Z,25.9
2023-05-06T12:20:01.950Z,25.8
2023-05-06T12:22:34.138Z,25.7
2023-05-06T12:25:05.581Z,25.8
2023-05-06T12:27:38.510Z,25.6
2023-05-06T12:30:11.826Z,25.5
2023-05-06T12:32:41.842Z,25.4
2023-05-06T12:35:12.954Z,25.4
2023-05-06T12:37:43.975Z,25.3
2023-05-06T12:40:17.631Z,25.2
2023-05-06T12:42:47.920Z,25.3
2023-05-06T12:45:21.144Z,25.5
2023-05-06T12:47:51.361Z,25.8
2023-05-06T12:50:22.078Z,25.9
2023-05-06T12:53:00.826Z,25.8
2023-05-06T12:55:31.625Z,25.9
2023-05-06T12:58:02.986Z,25.8
2023-05-06T13:00:33.689Z,25.6
2023-05-06T13:03:04.108Z,25.4
2023-05-06T13:05:34.275Z,25.4
2023-05-06T13:08:05.178Z,25.6
2023-05-06T13:10:36.618Z,25.3
2023-05-06T13:13:08.513Z,25.3
2023-05-06T13:15:43.232Z,25.3
2023-05-06T13:18:13.736Z,25.5
2023-05-06T13:20:48.097Z,25.5
2023-05-06T13:23:22.068Z,25.3
2023-05-06T13:26:04.015Z,25.4
2023-05-06T13:28:24.232Z,25.3
2023-05-06T13:30:54.766Z,25.4
2023-05-06T13:33:25.661Z,25.4
2023-05-06T13:35:56.480Z,25.5
2023-05-06T13:38:27.301Z,25.5
2023-05-06T13:40:58.065Z,25.4
2023-05-06T13:43:28.542Z,25.4
2023-05-06T13:45:59.303Z,25.4
2023-05-06T13:48:39.392Z,25.1
2023-05-06T13:51:10.662Z,25.2
2023-05-06T13:53:41.216Z,25.3
2023-05-06T13:56:11.725Z,25.1
2023-05-06T13:58:42.735Z,25.3
2023-05-06T14:01:17.164Z,25.4
2023-05-06T14:03:47.628Z,25.4
2023-05-06T14:06:22.206Z,25.3
2023-05-06T14:08:54.345Z,25.2
2023-05-06T14:11:24.955Z,25.4
2023-05-06T14:13:57.536Z,25.2
2023-05-06T14:16:31.655Z,25.3
2023-05-06T14:19:04.101Z,25.2
2023-05-06T14:21:35.448Z,24.7
2023-05-06T14:24:08.014Z,24.7
2023-05-06T14:26:41.431Z,24.9
2023-05-06T14:29:12.998Z,24.9
2023-05-06T14:31:43.480Z,25
2023-05-06T14:34:15.807Z,24.8
2023-05-06T14:36:47.365Z,24.9
2023-05-06T14:39:18.533Z,24.9
2023-05-06T14:41:52.395Z,25
2023-05-06T14:44:28.197Z,24.9
2023-05-06T14:47:01.952Z,25
2023-05-06T14:49:35.377Z,24.9
2023-05-06T14:52:07.338Z,24.9
2023-05-06T14:54:40.888Z,24.9
2023-05-06T14:57:13.080Z,24.8
2023-05-06T14:59:43.554Z,24.6
2023-05-06T15:02:13.965Z,24.7
2023-05-06T15:04:48.956Z,24.6
2023-05-06T15:07:19.101Z,24.5
2023-05-06T15:09:56.147Z,24.6
2023-05-06T15:12:29.762Z,24.5
2023-05-06T15:14:58.667Z,24.5
2023-05-06T15:17:29.088Z,24.5
2023-05-06T15:19:59.808Z,24.4
2023-05-06T15:22:35.886Z,24.6
2023-05-06T15:25:04.593Z,24.5
2023-05-06T15:27:41.670Z,24.5
2023-05-06T15:30:18.658Z,24.5
2023-05-06T15:41:51.110Z,24.7
2023-05-06T15:44:21.035Z,24.7
2023-05-06T15:46:51.203Z,24.3
2023-05-06T15:49:49.224Z,24.3
2023-05-06T15:51:58.505Z,24.4
2023-05-06T15:54:29.133Z,24.4
2023-05-06T15:57:09.134Z,24.3
2023-05-06T15:59:53.460Z,24.4
2023-05-06T16:02:27.101Z,24.4
2023-05-06T16:04:58.939Z,24.3
2023-05-06T16:07:33.262Z,24.3
2023-05-06T16:10:03.394Z,24.4
2023-05-06T16:12:34.125Z,24.2
2023-05-06T16:15:14.284Z,24
2023-05-06T16:17:44.491Z,24.1
2023-05-06T16:20:16.511Z,24.1
2023-05-06T16:23:00.158Z,24.1
2023-05-06T16:25:33.046Z,24
2023-05-06T16:28:12.639Z,24.2
2023-05-06T16:30:43.192Z,24.1
2023-05-06T16:33:15.810Z,24
2023-05-06T16:35:45.122Z,23.9
2023-05-06T16:38:14.795Z,23.9
2023-05-06T16:40:58.181Z,23.9
2023-05-06T16:43:38.541Z,23.7
2023-05-06T16:46:17.381Z,23.7
2023-05-06T16:49:05.707Z,23.8
2023-05-06T16:57:09.850Z,23.9
2023-05-06T17:02:28.733Z,23.9
2023-05-06T17:05:13.790Z,23.9
2023-05-06T17:07:43.953Z,23.8
2023-05-06T17:10:14.372Z,23.8
2023-05-06T17:15:36.466Z,23.8
2023-05-06T17:18:16.023Z,23.7
2023-05-06T17:20:56.279Z,23.6
2023-05-06T17:23:23.397Z,23.5
2023-05-06T17:25:52.754Z,23.5
2023-05-06T17:28:24.187Z,23.3
2023-05-06T17:30:54.699Z,23.3
2023-05-06T17:33:25.164Z,23.5
2023-05-06T17:36:10.548Z,23.2
2023-05-06T17:38:44.356Z,23.2
2023-05-06T17:41:25.501Z,23.2
2023-05-06T17:43:55.261Z,23.2
2023-05-06T17:46:25.837Z,23.1
2023-05-06T17:48:59.597Z,23.2
2023-05-06T17:51:30.077Z,23.1
2023-05-06T17:54:01.714Z,23
2023-05-06T17:56:32.693Z,23
2023-05-06T17:59:03.845Z,23
2023-05-06T18:01:34.289Z,22.9
2023-05-06T18:04:05.774Z,22.9
2023-05-06T18:06:35.971Z,22.9
2023-05-06T18:09:07.687Z,22.9
2023-05-06T18:11:38.219Z,22.5
2023-05-06T18:14:07.257Z,22.6
2023-05-06T18:16:37.969Z,22.7
2023-05-06T18:19:08.661Z,22.6
2023-05-06T18:21:47.851Z,22.3
2023-05-06T18:24:18.274Z,22.5
2023-05-06T18:26:48.853Z,22.4
2023-05-06T18:29:18.442Z,22.5
2023-05-06T18:31:49.163Z,22.1
2023-05-06T18:34:19.590Z,22.2
2023-05-06T18:36:50.434Z,22.2
2023-05-06T18:39:22.294Z,22.2
2023-05-06T18:42:02.881Z,22.2
2023-05-06T18:44:47.604Z,22
2023-05-06T18:47:25.674Z,22.1
2023-05-06T18:50:02.574Z,22.1
2023-05-06T18:52:33.751Z,22.1
2023-05-06T18:55:10.947Z,22
2023-05-06T18:57:41.266Z,22
2023-05-06T19:00:11.730Z,21.9
2023-05-06T19:08:14.094Z,21.7
2023-05-06T19:10:47.583Z,21.8
2023-05-06T19:13:21.874Z,21.8
2023-05-06T19:15:53.582Z,21.7
2023-05-06T19:18:24.037Z,21.7
2023-05-06T19:20:55.321Z,21.7
2023-05-06T19:23:25.167Z,21.6
2023-05-06T19:25:55.557Z,21.6
2023-05-06T19:28:27.856Z,21.5
2023-05-06T19:31:09.970Z,21.4
2023-05-06T19:33:40.468Z,21.3
2023-05-06T19:36:20.014Z,21.3
2023-05-06T19:41:29.803Z,21.1
2023-05-06T19:43:59.039Z,21.3
2023-05-06T19:46:29.389Z,21
2023-05-06T19:49:01.572Z,21.1
2023-05-06T19:51:35.174Z,21
2023-05-06T19:54:03.920Z,21
2023-05-06T19:56:34.366Z,21
2023-05-06T19:59:04.866Z,21.1
2023-05-06T20:01:35.833Z,20.9
2023-05-06T20:04:14.708Z,20.9
2023-05-06T20:06:43.505Z,21
2023-05-06T20:09:26.680Z,20.8
2023-05-06T20:12:08.311Z,20.8
2023-05-06T20:14:41.483Z,20.8
2023-05-06T20:17:12.647Z,20.7
2023-05-06T20:19:48.507Z,20.5
2023-05-06T20:22:17.276Z,20.5
2023-05-06T20:24:48.115Z,20.4
2023-05-06T20:27:21.186Z,20.5
2023-05-06T20:29:54.157Z,20.5
2023-05-06T20:32:26.432Z,20.5
2023-05-06T20:34:56.686Z,20.5
2023-05-06T20:37:28.470Z,20.5
2023-05-06T20:39:58.961Z,20.2
2023-05-06T20:42:29.724Z,20.2
2023-05-06T20:45:00.059Z,20.3
2023-05-06T20:47:31.061Z,20.3
2023-05-06T20:50:01.506Z,20.1
2023-05-06T20:52:32.140Z,19.9
2023-05-06T20:55:15.424Z,20.1
2023-05-06T20:58:00.761Z,20.1
2023-05-06T21:00:32.717Z,20.2
2023-05-06T21:03:12.248Z,20.1
2023-05-06T21:05:51.282Z,19.9
2023-05-06T21:08:34.434Z,19.9
2023-05-06T21:11:08.290Z,20
2023-05-06T21:13:49.584Z,20
2023-05-06T21:16:17.547Z,19.9
2023-05-06T21:18:47.586Z,19.8
2023-05-06T21:21:27.154Z,19.6
2023-05-06T21:23:56.925Z,19.6
2023-05-06T21:26:27.304Z,19.6
2023-05-06T21:29:00.352Z,19.5
2023-05-06T21:31:31.117Z,19.5
2023-05-06T21:34:01.399Z,19.5
2023-05-06T21:36:33.076Z,19.5
2023-05-06T21:39:14.118Z,19.3
2023-05-06T21:44:29.097Z,19.4
2023-05-06T21:54:58.583Z,19.4
2023-05-06T21:57:30.553Z,19.3
2023-05-06T22:00:00.912Z,19.2
2023-05-06T22:02:31.725Z,19.3
2023-05-06T22:05:02.890Z,19.3
2023-05-06T22:07:33.248Z,19.3
2023-05-06T22:10:02.122Z,19
2023-05-06T22:12:32.667Z,19.1
2023-05-06T22:15:01.780Z,19.2
2023-05-06T22:17:32.847Z,19.1
2023-05-06T22:20:01.307Z,19.2
2023-05-06T22:22:31.871Z,18.9
2023-05-06T22:25:02.104Z,18.8
2023-05-06T22:27:33.273Z,18.9
2023-05-06T22:30:03.498Z,19
2023-05-06T22:32:33.826Z,18.8
2023-05-06T22:35:05.047Z,18.7
2023-05-06T22:37:35.194Z,18.7
2023-05-06T22:40:05.606Z,18.5
2023-05-06T22:42:36.054Z,18.5
2023-05-06T22:45:05.179Z,18.5
2023-05-06T22:47:47.131Z,18.5
2023-05-06T22:52:55.535Z,18.6
2023-05-06T22:55:26.247Z,18.3
2023-05-06T22:58:02.017Z,18.5
2023-05-06T23:00:33.035Z,18.5
2023-05-06T23:03:10.037Z,18.5
2023-05-06T23:05:40.550Z,18.4
2023-05-06T23:08:11.149Z,18.5
2023-05-06T23:10:44.278Z,18.5
2023-05-06T23:13:15.020Z,18.3
2023-05-06T23:15:47.122Z,18.3
2023-05-06T23:18:17.667Z,18.1
2023-05-06T23:20:53.921Z,18.1
2023-05-06T23:23:25.613Z,18
2023-05-06T23:25:56.404Z,18.1
2023-05-06T23:28:28.550Z,18.1
2023-05-06T23:30:57.968Z,18
2023-05-06T23:33:32.565Z,18
2023-05-06T23:36:06.842Z,17.9
2023-05-06T23:38:40.716Z,17.9
2023-05-06T23:43:48.878Z,18
2023-05-06T23:46:20.121Z,17.9
2023-05-06T23:48:50.578Z,17.8
2023-05-06T23:51:21.920Z,17.7
2023-05-06T23:54:01.848Z,17.7
2023-05-06T23:56:32.753Z,17.7
2023-05-06T23:59:02.255Z,17.7
